createdAt,value
2017-10-07T00:01:39.701Z,63.90
2017-10-07T00:04:07.955Z,64.00
2017-10-07T00:06:37.111Z,63.90
2017-10-07T00:09:04.560Z,63.90
2017-10-07T00:11:32.055Z,64.00
2017-10-07T00:13:59.512Z,63.90
2017-10-07T00:16:26.976Z,63.90
2017-10-07T00:21:28.250Z,64.00
2017-10-07T00:23:55.701Z,64.00
2017-10-07T00:26:23.176Z,64.00
2017-10-07T00:28:50.760Z,64.00
2017-10-07T00:31:18.219Z,64.10
2017-10-07T00:33:45.698Z,64.10
2017-10-07T00:36:13.161Z,64.10
2017-10-07T00:38:40.664Z,64.00
2017-10-07T00:41:08.118Z,64.00
2017-10-07T00:43:35.578Z,64.00
2017-10-07T00:46:03.077Z,64.20
2017-10-07T00:48:30.540Z,64.00
2017-10-07T00:50:58.017Z,64.10
2017-10-07T00:53:25.481Z,64.00
2017-10-07T00:55:52.953Z,64.00
2017-10-07T00:58:20.416Z,64.10
2017-10-07T01:00:47.904Z,64.20
2017-10-07T01:03:16.122Z,64.00
2017-10-07T01:05:43.580Z,64.10
2017-10-07T01:08:11.062Z,63.90
2017-10-07T01:10:38.544Z,63.90
2017-10-07T01:13:06.809Z,63.80
2017-10-07T01:15:34.274Z,63.60
2017-10-07T01:18:02.503Z,63.60
2017-10-07T01:20:30.047Z,63.60
2017-10-07T01:22:57.521Z,63.60
2017-10-07T01:25:24.981Z,63.60
2017-10-07T01:27:52.499Z,63.40
2017-10-07T01:30:20.730Z,63.60
2017-10-07T01:32:48.185Z,63.60
2017-10-07T01:35:15.667Z,63.60
2017-10-07T01:37:43.149Z,63.60
2017-10-07T01:40:10.606Z,63.70
2017-10-07T01:42:38.813Z,63.80
2017-10-07T01:45:06.293Z,63.80
2017-10-07T01:47:33.788Z,63.90
2017-10-07T01:50:02.977Z,63.90
2017-10-07T01:52:30.471Z,63.90
2017-10-07T01:54:58.685Z,63.90
2017-10-07T01:57:26.152Z,63.90
2017-10-07T01:59:53.632Z,63.90
2017-10-07T02:02:21.113Z,63.90
2017-10-07T02:04:48.570Z,63.90
2017-10-07T02:07:16.801Z,63.90
2017-10-07T02:09:44.281Z,63.80
2017-10-07T02:12:11.742Z,64.00
2017-10-07T02:14:39.550Z,63.90
2017-10-07T02:17:07.004Z,63.80
2017-10-07T02:19:34.564Z,63.90
2017-10-07T02:22:02.021Z,63.90
2017-10-07T02:24:29.475Z,63.80
2017-10-07T02:26:56.965Z,63.80
2017-10-07T02:29:24.421Z,63.80
2017-10-07T02:31:51.896Z,63.80
2017-10-07T02:34:19.359Z,63.70
2017-10-07T02:36:46.841Z,63.70
2017-10-07T02:39:14.333Z,63.70
2017-10-07T02:41:41.812Z,63.60
2017-10-07T02:44:10.204Z,63.40
2017-10-07T02:46:37.725Z,63.20
2017-10-07T02:49:05.256Z,63.30
2017-10-07T02:51:33.506Z,62.90
2017-10-07T02:54:00.970Z,62.90
2017-10-07T02:56:28.425Z,62.90
2017-10-07T02:58:55.922Z,62.90
2017-10-07T03:01:23.373Z,62.80
2017-10-07T03:03:51.601Z,62.70
2017-10-07T03:06:19.090Z,62.70
2017-10-07T03:08:46.548Z,62.70
2017-10-07T03:11:14.773Z,62.80
2017-10-07T03:13:42.260Z,62.60
2017-10-07T03:16:09.729Z,62.50
2017-10-07T03:18:37.224Z,62.60
2017-10-07T03:21:04.686Z,62.60
2017-10-07T03:23:32.170Z,62.60
2017-10-07T03:25:59.627Z,62.50
2017-10-07T03:28:27.102Z,62.50
2017-10-07T03:30:54.558Z,62.50
2017-10-07T03:33:22.034Z,62.50
2017-10-07T03:35:49.489Z,62.40
2017-10-07T03:38:16.968Z,62.40
2017-10-07T03:40:44.433Z,62.30
2017-10-07T03:43:12.650Z,62.30
2017-10-07T03:45:40.129Z,62.10
2017-10-07T03:48:07.608Z,62.30
2017-10-07T03:50:35.078Z,62.20
2017-10-07T03:53:02.570Z,62.20
2017-10-07T03:58:03.865Z,62.10
2017-10-07T04:00:31.349Z,62.00
2017-10-07T04:02:58.826Z,62.00
2017-10-07T04:05:27.057Z,62.00
2017-10-07T04:07:54.533Z,62.00
2017-10-07T04:10:22.033Z,62.00
2017-10-07T04:12:49.533Z,62.10
2017-10-07T04:15:16.993Z,61.90
2017-10-07T04:17:44.457Z,61.80
2017-10-07T04:20:12.255Z,61.60
2017-10-07T04:22:40.513Z,61.70
2017-10-07T04:25:07.969Z,61.50
2017-10-07T04:27:35.421Z,61.50
2017-10-07T04:30:02.905Z,61.30
2017-10-07T04:32:31.169Z,61.30
2017-10-07T04:34:58.638Z,61.30
2017-10-07T04:37:26.870Z,61.10
2017-10-07T04:39:54.406Z,60.90
2017-10-07T04:42:21.870Z,60.90
2017-10-07T04:44:49.338Z,60.80
2017-10-07T04:47:16.814Z,60.50
2017-10-07T04:49:44.265Z,60.50
2017-10-07T04:52:11.800Z,60.40
2017-10-07T04:54:39.262Z,60.30
2017-10-07T04:57:06.753Z,59.90
2017-10-07T04:59:34.229Z,59.90
2017-10-07T05:02:01.707Z,59.90
2017-10-07T05:04:29.961Z,59.70
2017-10-07T05:06:57.421Z,59.70
2017-10-07T05:09:24.889Z,59.80
2017-10-07T05:11:53.149Z,59.50
2017-10-07T05:14:20.609Z,60.20
2017-10-07T05:16:48.077Z,59.50
2017-10-07T05:19:16.330Z,59.60
2017-10-07T05:21:43.788Z,59.40
2017-10-07T05:24:11.262Z,59.40
2017-10-07T05:26:38.740Z,59.30
2017-10-07T05:29:06.969Z,59.20
2017-10-07T05:31:34.453Z,59.10
2017-10-07T05:34:01.913Z,59.10
2017-10-07T05:36:29.417Z,59.10
2017-10-07T05:38:56.896Z,59.00
2017-10-07T05:41:24.378Z,59.00
2017-10-07T05:43:51.854Z,59.10
2017-10-07T05:46:19.329Z,58.80
2017-10-07T05:48:46.801Z,58.70
2017-10-07T05:51:15.221Z,59.30
2017-10-07T05:53:42.688Z,58.60
2017-10-07T05:56:10.160Z,58.60
2017-10-07T05:58:37.650Z,58.40
2017-10-07T06:01:05.147Z,58.30
2017-10-07T06:03:32.602Z,58.30
2017-10-07T06:06:00.059Z,58.40
2017-10-07T06:08:27.616Z,58.30
2017-10-07T06:10:55.049Z,58.30
2017-10-07T06:13:22.533Z,58.30
2017-10-07T06:15:50.017Z,58.20
2017-10-07T06:18:17.464Z,58.10
2017-10-07T06:20:44.993Z,58.30
2017-10-07T06:23:12.478Z,58.10
2017-10-07T06:25:39.931Z,58.10
2017-10-07T06:28:07.434Z,58.10
2017-10-07T06:30:35.704Z,58.00
2017-10-07T06:33:03.156Z,58.00
2017-10-07T06:35:30.695Z,58.00
2017-10-07T06:37:58.158Z,58.10
2017-10-07T06:40:25.646Z,58.00
2017-10-07T06:42:53.117Z,58.00
2017-10-07T06:45:20.564Z,57.90
2017-10-07T06:47:48.058Z,58.20
2017-10-07T06:50:16.760Z,57.90
2017-10-07T06:52:46.113Z,57.90
2017-10-07T06:55:13.659Z,57.90
2017-10-07T06:57:41.180Z,57.90
2017-10-07T07:00:08.946Z,57.90
2017-10-07T07:02:36.692Z,57.90
2017-10-07T07:05:04.369Z,57.80
2017-10-07T07:07:31.869Z,57.80
2017-10-07T07:09:59.358Z,57.90
2017-10-07T07:12:26.828Z,57.90
2017-10-07T07:14:54.297Z,58.00
2017-10-07T07:17:21.834Z,57.90
2017-10-07T07:19:49.345Z,57.90
2017-10-07T07:22:16.807Z,57.90
2017-10-07T07:24:44.357Z,57.90
2017-10-07T07:27:12.067Z,57.80
2017-10-07T07:29:40.086Z,57.80
2017-10-07T07:32:07.582Z,57.90
2017-10-07T07:34:35.218Z,57.80
2017-10-07T07:37:03.001Z,57.80
2017-10-07T07:39:30.646Z,57.80
2017-10-07T07:41:58.917Z,57.90
2017-10-07T07:44:26.407Z,57.90
2017-10-07T07:46:54.855Z,58.30
2017-10-07T07:49:22.615Z,58.30
2017-10-07T07:51:50.119Z,58.20
2017-10-07T07:54:17.597Z,58.30
2017-10-07T07:56:45.202Z,58.90
2017-10-07T07:59:14.009Z,58.40
2017-10-07T08:01:41.942Z,58.30
2017-10-07T08:04:09.489Z,58.30
2017-10-07T08:06:37.179Z,58.30
2017-10-07T08:09:05.007Z,58.30
2017-10-07T08:11:32.680Z,58.30
2017-10-07T08:14:00.152Z,58.10
2017-10-07T08:16:27.889Z,58.20
2017-10-07T08:18:55.591Z,58.20
2017-10-07T08:21:23.948Z,58.00
2017-10-07T08:23:52.365Z,58.00
2017-10-07T08:26:20.600Z,58.10
2017-10-07T08:28:48.467Z,58.10
2017-10-07T08:31:16.186Z,58.00
2017-10-07T08:33:44.639Z,57.90
2017-10-07T08:36:12.333Z,57.90
2017-10-07T08:38:40.205Z,58.00
2017-10-07T08:41:08.530Z,58.20
2017-10-07T08:43:36.276Z,58.10
2017-10-07T08:46:03.993Z,58.10
2017-10-07T08:48:31.487Z,58.20
2017-10-07T08:50:59.791Z,58.10
2017-10-07T08:53:27.333Z,58.10
2017-10-07T08:55:55.070Z,58.20
2017-10-07T08:58:22.707Z,58.20
2017-10-07T09:00:50.453Z,58.20
2017-10-07T09:03:18.428Z,58.10
2017-10-07T09:05:46.897Z,58.20
2017-10-07T09:08:14.375Z,58.20
2017-10-07T09:10:42.045Z,58.30
2017-10-07T09:13:10.479Z,58.30
2017-10-07T09:15:38.183Z,58.20
2017-10-07T09:18:06.760Z,58.30
2017-10-07T09:20:34.279Z,58.20
2017-10-07T09:23:02.126Z,58.40
2017-10-07T09:25:29.942Z,58.60
2017-10-07T09:27:57.640Z,58.80
2017-10-07T09:30:25.141Z,58.90
2017-10-07T09:32:52.716Z,59.00
2017-10-07T09:35:20.365Z,58.90
2017-10-07T09:37:47.844Z,58.80
2017-10-07T09:40:15.328Z,58.60
2017-10-07T09:42:42.805Z,59.10
2017-10-07T09:45:10.536Z,58.50
2017-10-07T09:47:38.194Z,58.50
2017-10-07T09:50:05.857Z,58.50
2017-10-07T09:52:33.690Z,58.60
2017-10-07T09:55:01.246Z,58.60
2017-10-07T09:57:28.814Z,58.60
2017-10-07T09:59:56.488Z,58.80
2017-10-07T10:02:23.980Z,58.80
2017-10-07T10:04:51.602Z,59.10
2017-10-07T10:07:20.700Z,59.80
2017-10-07T10:09:48.173Z,59.80
2017-10-07T10:12:15.653Z,59.80
2017-10-07T10:14:43.402Z,60.10
2017-10-07T10:17:10.907Z,60.30
2017-10-07T10:19:39.337Z,60.50
2017-10-07T10:22:06.793Z,60.50
2017-10-07T10:24:34.444Z,60.60
2017-10-07T10:27:02.306Z,60.80
2017-10-07T10:29:29.961Z,61.10
2017-10-07T10:31:58.460Z,61.40
2017-10-07T10:34:26.718Z,61.50
2017-10-07T10:36:54.271Z,61.50
2017-10-07T10:39:21.747Z,61.90
2017-10-07T10:41:49.220Z,62.50
2017-10-07T10:44:16.945Z,62.70
2017-10-07T10:46:44.448Z,63.30
2017-10-07T10:49:11.919Z,63.60
2017-10-07T10:51:39.480Z,63.80
2017-10-07T10:54:06.928Z,64.20
2017-10-07T10:56:34.512Z,64.60
2017-10-07T10:59:02.708Z,64.70
2017-10-07T11:01:30.385Z,64.70
2017-10-07T11:03:59.012Z,64.90
2017-10-07T11:06:26.548Z,64.90
2017-10-07T11:08:54.420Z,64.90
2017-10-07T11:11:22.196Z,64.70
2017-10-07T11:13:49.949Z,64.50
2017-10-07T11:16:17.404Z,64.60
2017-10-07T11:18:45.068Z,64.80
2017-10-07T11:21:12.959Z,64.70
2017-10-07T11:23:40.484Z,64.60
2017-10-07T11:26:09.030Z,64.80
2017-10-07T11:28:37.352Z,65.00
2017-10-07T11:31:04.897Z,64.90
2017-10-07T11:33:32.532Z,64.80
2017-10-07T11:36:00.881Z,65.30
2017-10-07T11:38:28.362Z,65.30
2017-10-07T11:40:55.809Z,65.30
2017-10-07T11:43:23.291Z,65.20
2017-10-07T11:45:50.753Z,65.30
2017-10-07T11:48:18.218Z,65.50
2017-10-07T11:50:45.693Z,65.70
2017-10-07T11:53:13.929Z,65.90
2017-10-07T11:55:41.413Z,65.90
2017-10-07T11:58:09.670Z,65.80
2017-10-07T12:00:37.141Z,66.00
2017-10-07T12:03:04.613Z,65.90
2017-10-07T12:05:32.877Z,65.70
2017-10-07T12:08:00.418Z,65.70
2017-10-07T12:10:27.881Z,65.70
2017-10-07T12:12:55.358Z,65.80
2017-10-07T12:15:22.845Z,65.80
2017-10-07T12:17:50.297Z,65.70
2017-10-07T12:20:17.811Z,65.70
2017-10-07T12:22:45.280Z,66.50
2017-10-07T12:25:12.777Z,65.60
2017-10-07T12:27:40.251Z,65.60
2017-10-07T12:30:07.750Z,65.50
2017-10-07T12:32:35.206Z,65.70
2017-10-07T12:35:02.698Z,65.80
2017-10-07T12:37:30.152Z,66.00
2017-10-07T12:39:57.705Z,65.90
2017-10-07T12:42:25.953Z,66.20
2017-10-07T12:44:53.405Z,66.20
2017-10-07T12:47:20.870Z,66.30
2017-10-07T12:49:48.340Z,66.30
2017-10-07T12:52:15.805Z,66.60
2017-10-07T12:54:43.282Z,66.70
2017-10-07T12:57:11.534Z,67.20
2017-10-07T12:59:38.985Z,67.20
2017-10-07T13:02:06.433Z,67.60
2017-10-07T13:04:33.930Z,67.90
2017-10-07T13:07:02.141Z,68.40
2017-10-07T13:09:29.661Z,68.40
2017-10-07T13:11:57.900Z,68.90
2017-10-07T13:14:25.353Z,68.90
2017-10-07T13:16:53.778Z,69.00
2017-10-07T13:19:21.234Z,69.00
2017-10-07T13:21:48.698Z,69.10
2017-10-07T13:24:16.174Z,69.20
2017-10-07T13:26:43.650Z,69.30
2017-10-07T13:29:11.132Z,69.40
2017-10-07T13:31:38.580Z,69.40
2017-10-07T13:34:06.044Z,69.40
2017-10-07T13:36:33.526Z,69.50
2017-10-07T13:39:01.018Z,69.50
2017-10-07T13:41:28.506Z,69.80
2017-10-07T13:43:55.960Z,70.00
2017-10-07T13:46:24.978Z,70.20
2017-10-07T13:48:52.433Z,70.30
2017-10-07T13:51:19.913Z,70.40
2017-10-07T13:53:47.376Z,70.50
2017-10-07T13:56:14.854Z,70.50
2017-10-07T13:58:43.066Z,70.40
2017-10-07T14:01:10.547Z,70.40
2017-10-07T14:03:38.002Z,70.50
2017-10-07T14:06:05.496Z,70.50
2017-10-07T14:08:33.764Z,70.60
2017-10-07T14:11:01.989Z,70.70
2017-10-07T14:13:29.467Z,70.70
2017-10-07T14:15:56.922Z,70.70
2017-10-07T14:18:25.417Z,71.10
2017-10-07T14:20:52.885Z,71.10
2017-10-07T14:23:20.347Z,71.20
2017-10-07T14:25:47.829Z,71.30
2017-10-07T14:28:16.050Z,71.60
2017-10-07T14:30:43.550Z,72.30
2017-10-07T14:33:11.792Z,71.70
2017-10-07T14:35:39.273Z,71.60
2017-10-07T14:38:06.723Z,71.80
2017-10-07T14:40:34.182Z,71.90
2017-10-07T14:43:01.666Z,72.00
2017-10-07T14:45:29.886Z,72.30
2017-10-07T14:47:57.917Z,72.20
2017-10-07T14:50:25.392Z,72.30
2017-10-07T14:52:52.865Z,72.50
2017-10-07T14:55:20.394Z,72.70
2017-10-07T14:57:48.662Z,72.70
2017-10-07T15:00:16.941Z,72.80
2017-10-07T15:02:45.161Z,72.90
2017-10-07T15:05:12.653Z,72.80
2017-10-07T15:07:40.118Z,72.80
2017-10-07T15:10:07.565Z,72.80
2017-10-07T15:12:35.037Z,72.70
2017-10-07T15:15:03.297Z,72.70
2017-10-07T15:17:30.759Z,72.70
2017-10-07T15:19:58.309Z,72.70
2017-10-07T15:22:26.020Z,72.60
2017-10-07T15:24:54.672Z,72.80
2017-10-07T15:27:22.190Z,72.80
2017-10-07T15:29:49.880Z,72.80
2017-10-07T15:32:17.535Z,72.90
2017-10-07T15:34:45.272Z,73.10
2017-10-07T15:37:12.721Z,73.20
2017-10-07T15:39:40.510Z,73.10
2017-10-07T15:42:08.337Z,73.20
2017-10-07T15:44:35.798Z,73.40
2017-10-07T15:47:03.285Z,73.30
2017-10-07T15:49:30.746Z,73.30
2017-10-07T15:51:58.364Z,73.30
2017-10-07T15:54:26.252Z,73.20
2017-10-07T15:56:53.744Z,73.10
2017-10-07T15:59:21.586Z,73.10
2017-10-07T16:01:49.269Z,73.30
2017-10-07T16:04:17.096Z,73.20
2017-10-07T16:06:45.264Z,73.10
2017-10-07T16:09:13.500Z,73.20
2017-10-07T16:11:41.191Z,73.20
2017-10-07T16:14:09.501Z,73.20
2017-10-07T16:16:37.103Z,73.20
2017-10-07T16:19:05.415Z,73.30
2017-10-07T16:21:32.925Z,73.30
2017-10-07T16:24:00.528Z,73.20
2017-10-07T16:26:27.993Z,73.10
2017-10-07T16:28:57.273Z,73.60
2017-10-07T16:31:24.948Z,73.10
2017-10-07T16:33:53.348Z,73.10
2017-10-07T16:36:20.982Z,73.10
2017-10-07T16:38:48.694Z,73.10
2017-10-07T16:41:16.324Z,73.10
2017-10-07T16:43:43.981Z,73.10
2017-10-07T16:46:11.513Z,73.10
2017-10-07T16:48:38.969Z,73.10
2017-10-07T16:51:06.717Z,73.10
2017-10-07T16:53:34.303Z,73.00
2017-10-07T16:56:02.075Z,73.10
2017-10-07T16:58:29.918Z,73.00
2017-10-07T17:00:57.622Z,73.00
2017-10-07T17:03:25.302Z,73.00
2017-10-07T17:05:53.009Z,73.90
2017-10-07T17:08:20.691Z,73.10
2017-10-07T17:10:48.434Z,73.30
2017-10-07T17:13:16.096Z,74.10
2017-10-07T17:15:43.925Z,73.40
2017-10-07T17:18:11.723Z,73.40
2017-10-07T17:20:40.226Z,73.40
2017-10-07T17:23:08.633Z,73.40
2017-10-07T17:25:36.246Z,73.40
2017-10-07T17:28:03.732Z,73.50
2017-10-07T17:30:31.231Z,73.50
2017-10-07T17:32:59.685Z,73.50
2017-10-07T17:35:28.544Z,73.50
2017-10-07T17:37:56.011Z,73.40
2017-10-07T17:40:23.490Z,73.50
2017-10-07T17:42:50.953Z,73.60
2017-10-07T17:45:18.437Z,73.70
2017-10-07T17:47:46.665Z,74.00
2017-10-07T17:50:14.109Z,73.90
2017-10-07T17:52:41.616Z,73.90
2017-10-07T17:55:09.857Z,74.10
2017-10-07T17:57:37.321Z,74.10
2017-10-07T18:00:04.811Z,74.00
2017-10-07T18:02:33.042Z,74.20
2017-10-07T18:05:00.520Z,74.20
2017-10-07T18:07:28.890Z,74.40
2017-10-07T18:09:56.365Z,74.40
2017-10-07T18:12:23.841Z,74.40
2017-10-07T18:14:52.099Z,74.40
2017-10-07T18:17:19.563Z,74.40
2017-10-07T18:19:47.183Z,74.40
2017-10-07T18:22:14.673Z,74.40
2017-10-07T18:24:42.137Z,74.40
2017-10-07T18:27:10.756Z,74.40
2017-10-07T18:29:38.227Z,75.20
2017-10-07T18:32:06.155Z,74.40
2017-10-07T18:34:33.848Z,74.30
2017-10-07T18:37:01.592Z,74.40
2017-10-07T18:39:29.867Z,74.20
2017-10-07T18:41:57.646Z,74.20
2017-10-07T18:44:25.965Z,74.20
2017-10-07T18:46:53.456Z,74.20
2017-10-07T18:49:20.971Z,74.10
2017-10-07T18:51:49.230Z,75.20
2017-10-07T18:54:16.692Z,74.40
2017-10-07T18:56:44.423Z,74.50
2017-10-07T18:59:11.896Z,74.60
2017-10-07T19:01:40.118Z,74.80
2017-10-07T19:04:07.604Z,74.80
2017-10-07T19:06:35.066Z,74.70
2017-10-07T19:09:02.529Z,74.90
2017-10-07T19:11:30.034Z,74.80
2017-10-07T19:13:59.182Z,74.70
2017-10-07T19:16:26.719Z,74.60
2017-10-07T19:18:54.289Z,74.60
2017-10-07T19:21:21.968Z,74.60
2017-10-07T19:23:49.619Z,74.50
2017-10-07T19:26:17.142Z,74.50
2017-10-07T19:28:44.799Z,74.40
2017-10-07T19:31:13.157Z,74.30
2017-10-07T19:33:40.893Z,74.20
2017-10-07T19:36:08.647Z,74.40
2017-10-07T19:38:36.387Z,74.40
2017-10-07T19:41:04.065Z,74.40
2017-10-07T19:43:31.581Z,75.10
2017-10-07T19:45:59.835Z,74.40
2017-10-07T19:48:27.292Z,74.40
2017-10-07T19:50:55.024Z,74.40
2017-10-07T19:53:22.635Z,74.30
2017-10-07T19:55:50.132Z,74.30
2017-10-07T19:58:17.838Z,74.30
2017-10-07T20:00:45.284Z,74.30
2017-10-07T20:03:12.963Z,74.40
2017-10-07T20:05:40.608Z,74.40
2017-10-07T20:08:08.113Z,74.40
2017-10-07T20:10:35.648Z,74.40
2017-10-07T20:13:03.865Z,74.50
2017-10-07T20:15:31.362Z,74.60
2017-10-07T20:17:58.801Z,74.50
2017-10-07T20:20:26.269Z,74.60
2017-10-07T20:22:53.745Z,74.60
2017-10-07T20:25:21.188Z,74.60
2017-10-07T20:27:48.665Z,74.60
2017-10-07T20:30:16.885Z,74.70
2017-10-07T20:32:44.361Z,74.50
2017-10-07T20:35:13.431Z,74.50
2017-10-07T20:37:40.909Z,74.40
2017-10-07T20:40:08.466Z,74.40
2017-10-07T20:42:35.933Z,74.40
2017-10-07T20:45:03.393Z,74.40
2017-10-07T20:47:30.932Z,74.40
2017-10-07T20:49:58.416Z,75.20
2017-10-07T20:52:25.894Z,74.30
2017-10-07T20:54:53.381Z,74.40
2017-10-07T20:57:21.596Z,74.40
2017-10-07T20:59:49.052Z,74.40
2017-10-07T21:02:16.536Z,74.40
2017-10-07T21:04:43.997Z,74.30
2017-10-07T21:07:11.456Z,74.20
2017-10-07T21:09:38.973Z,74.20
2017-10-07T21:12:06.433Z,74.10
2017-10-07T21:14:33.903Z,74.30
2017-10-07T21:17:01.409Z,74.20
2017-10-07T21:19:28.861Z,74.10
2017-10-07T21:21:56.341Z,74.20
2017-10-07T21:24:23.801Z,74.10
2017-10-07T21:26:51.285Z,74.00
2017-10-07T21:29:18.871Z,74.20
2017-10-07T21:31:46.317Z,73.90
2017-10-07T21:34:13.785Z,73.90
2017-10-07T21:36:41.277Z,73.80
2017-10-07T21:39:08.732Z,73.80
2017-10-07T21:41:36.204Z,73.90
2017-10-07T21:44:03.670Z,73.90
2017-10-07T21:46:32.625Z,74.10
2017-10-07T21:49:00.085Z,74.10
2017-10-07T21:51:27.550Z,74.00
2017-10-07T21:53:55.029Z,74.10
2017-10-07T21:56:23.285Z,74.10
2017-10-07T21:58:50.737Z,74.10
2017-10-07T22:01:18.211Z,74.20
2017-10-07T22:03:46.627Z,75.00
2017-10-07T22:06:14.109Z,74.20
2017-10-07T22:08:41.628Z,74.40
2017-10-07T22:11:09.089Z,74.30
2017-10-07T22:13:36.545Z,74.30
2017-10-07T22:16:04.034Z,74.10
2017-10-07T22:18:32.456Z,74.20
2017-10-07T22:20:59.917Z,74.10
2017-10-07T22:23:27.378Z,74.20
2017-10-07T22:25:55.628Z,74.10
2017-10-07T22:28:23.095Z,74.10
2017-10-07T22:30:50.557Z,74.10
2017-10-07T22:33:18.818Z,74.00
2017-10-07T22:35:46.274Z,74.00
2017-10-07T22:38:13.757Z,74.00
2017-10-07T22:40:41.246Z,73.90
2017-10-07T22:43:08.717Z,73.90
2017-10-07T22:45:36.210Z,73.90
2017-10-07T22:48:03.669Z,73.90
2017-10-07T22:50:31.121Z,73.80
2017-10-07T22:52:58.593Z,73.90
2017-10-07T22:55:26.072Z,73.90
2017-10-07T22:57:53.533Z,73.80
2017-10-07T23:00:21.761Z,73.60
2017-10-07T23:02:49.237Z,73.60
2017-10-07T23:05:16.699Z,73.70
2017-10-07T23:07:44.180Z,73.70
2017-10-07T23:10:11.652Z,73.70
2017-10-07T23:12:39.881Z,73.60
2017-10-07T23:15:07.345Z,73.60
2017-10-07T23:17:34.841Z,73.60
2017-10-07T23:20:03.994Z,73.60
2017-10-07T23:22:33.242Z,73.60
2017-10-07T23:25:00.738Z,73.60
2017-10-07T23:27:28.193Z,73.70
2017-10-07T23:29:55.741Z,73.70
2017-10-07T23:32:23.195Z,73.80
2017-10-07T23:34:50.662Z,73.90
2017-10-07T23:37:18.133Z,73.90
2017-10-07T23:39:45.610Z,74.00
2017-10-07T23:42:13.088Z,74.00
2017-10-07T23:44:40.544Z,74.20
2017-10-07T23:47:10.873Z,74.30
2017-10-07T23:49:38.329Z,74.30
2017-10-07T23:52:05.841Z,74.30
2017-10-07T23:54:34.088Z,74.00
2017-10-07T23:57:02.321Z,74.10
2017-10-07T23:59:29.773Z,74.00
